Time;durP1;ratioP1;P1;durP2;ratioP2;P2;SDS_P1;SDS_P2;PMS_P1;PMS_P2;Temp;Humidity;BMP_temperature;BMP_pressure;BME280_temperature;BME280_humidity;BME280_pressure;Samples;Min_cycle;Max_cycle;Signal;HPM_P1;HPM_P2
2023/01/06 00:02:18;;;;;;;4.78;4.28;;;;;;;;;;5076183;28;20217;-67
2023/01/06 00:04:45;;;;;;;5.85;5.25;;;;;;;;;;5076094;28;20204;-67
2023/01/06 00:07:11;;;;;;;11.93;7.40;;;;;;;;;;5076300;28;20204;-66
2023/01/06 00:09:37;;;;;;;20.23;10.85;;;;;;;;;;5076125;28;20204;-66
2023/01/06 00:12:03;;;;;;;18.13;11.45;;;;;;;;;;5073462;28;20234;-67
2023/01/06 00:14:30;;;;;;;17.02;10.77;;;;;;;;;;5072566;28;20236;-67
2023/01/06 00:16:56;;;;;;;16.23;9.85;;;;;;;;;;5074031;28;20205;-67
2023/01/06 00:19:24;;;;;;;13.00;8.85;;;;;;;;;;5076181;28;20208;-67
2023/01/06 00:21:50;;;;;;;15.90;8.77;;;;;;;;;;5074935;28;20415;-67
2023/01/06 00:24:16;;;;;;;12.35;7.50;;;;;;;;;;5072468;28;20264;-67
2023/01/06 00:26:43;;;;;;;11.50;7.05;;;;;;;;;;5072448;28;20197;-67
2023/01/06 00:29:09;;;;;;;13.40;8.00;;;;;;;;;;5075632;28;20247;-67
2023/01/06 00:31:36;;;;;;;12.52;7.65;;;;;;;;;;5068650;28;20423;-67
2023/01/06 00:34:03;;;;;;;12.23;7.75;;;;;;;;;;5074895;28;20513;-67
2023/01/06 00:36:30;;;;;;;16.27;7.60;;;;;;;;;;5074678;28;20423;-67
2023/01/06 00:38:57;;;;;;;11.57;7.07;;;;;;;;;;5073797;28;20270;-67
2023/01/06 00:44:07;;;;;;;9.90;6.43;;;;;;;;;;5075165;28;20200;-67
2023/01/06 00:46:33;;;;;;;13.57;6.70;;;;;;;;;;5075347;28;20550;-67
2023/01/06 00:49:00;;;;;;;8.13;5.50;;;;;;;;;;5073359;28;20230;-67
2023/01/06 00:51:26;;;;;;;5.90;5.38;;;;;;;;;;5071803;28;20391;-67
2023/01/06 00:53:54;;;;;;;6.72;4.72;;;;;;;;;;5072998;28;20276;-67
2023/01/06 00:56:20;;;;;;;7.40;4.95;;;;;;;;;;5075023;28;20197;-67
2023/01/06 00:58:47;;;;;;;5.80;4.15;;;;;;;;;;5074671;28;20208;-67
2023/01/06 01:01:13;;;;;;;5.40;4.07;;;;;;;;;;5071857;28;20279;-67
2023/01/06 01:03:39;;;;;;;6.80;4.85;;;;;;;;;;5071930;28;20205;-67
2023/01/06 01:06:07;;;;;;;6.13;4.43;;;;;;;;;;5071395;28;20400;-67
2023/01/06 01:08:33;;;;;;;5.05;4.00;;;;;;;;;;5071742;28;20197;-67
2023/01/06 01:11:03;;;;;;;9.80;6.00;;;;;;;;;;5073547;28;20501;-67
2023/01/06 01:13:29;;;;;;;9.15;6.20;;;;;;;;;;5075204;28;20491;-67
2023/01/06 01:15:56;;;;;;;10.95;6.10;;;;;;;;;;5073100;28;20397;-67
2023/01/06 01:18:22;;;;;;;8.73;6.22;;;;;;;;;;5071558;28;20264;-67
2023/01/06 01:20:48;;;;;;;10.80;6.05;;;;;;;;;;5071608;28;20379;-67
2023/01/06 01:23:15;;;;;;;9.18;5.50;;;;;;;;;;5074808;28;20369;-67
2023/01/06 01:25:41;;;;;;;8.20;5.95;;;;;;;;;;5074435;28;20534;-67
2023/01/06 01:28:08;;;;;;;9.40;5.15;;;;;;;;;;5071578;28;20232;-67
2023/01/06 01:30:35;;;;;;;9.55;5.72;;;;;;;;;;5071477;28;20201;-67
2023/01/06 01:33:01;;;;;;;6.57;5.68;;;;;;;;;;5073634;28;20201;-66
2023/01/06 01:35:27;;;;;;;9.27;5.70;;;;;;;;;;5074350;28;20200;-67
2023/01/06 01:37:53;;;;;;;8.50;6.20;;;;;;;;;;5073298;28;20204;-67
2023/01/06 01:40:20;;;;;;;9.38;5.10;;;;;;;;;;5070886;28;20201;-67
2023/01/06 01:42:46;;;;;;;9.23;5.43;;;;;;;;;;5071293;28;20221;-67
2023/01/06 01:45:21;;;;;;;10.50;5.78;;;;;;;;;;5074128;28;20499;-67
2023/01/06 01:47:49;;;;;;;9.38;5.55;;;;;;;;;;5073716;28;20222;-67
2023/01/06 01:50:23;;;;;;;7.90;5.05;;;;;;;;;;5070825;28;20377;-67
2023/01/06 01:52:50;;;;;;;9.68;5.10;;;;;;;;;;5071150;28;20377;-67
2023/01/06 01:55:18;;;;;;;11.82;6.30;;;;;;;;;;5074185;28;20264;-67
2023/01/06 01:57:46;;;;;;;6.47;5.03;;;;;;;;;;5074242;28;20197;-67
2023/01/06 02:00:13;;;;;;;5.82;5.25;;;;;;;;;;5070701;28;20197;-67
2023/01/06 02:02:42;;;;;;;9.35;5.40;;;;;;;;;;5070464;28;20284;-67
2023/01/06 02:05:09;;;;;;;5.93;4.72;;;;;;;;;;5073490;28;20209;-67
2023/01/06 02:07:35;;;;;;;7.65;4.57;;;;;;;;;;5073911;28;20259;-67
2023/01/06 02:10:05;;;;;;;5.85;4.68;;;;;;;;;;5071532;28;20520;-67
2023/01/06 02:12:32;;;;;;;7.00;5.25;;;;;;;;;;5070145;28;20244;-67
2023/01/06 02:14:58;;;;;;;5.72;4.18;;;;;;;;;;5078534;28;20204;-67
2023/01/06 02:17:34;;;;;;;5.68;4.68;;;;;;;;;;5070573;28;20205;-67
2023/01/06 02:20:12;;;;;;;6.38;4.00;;;;;;;;;;5072435;28;20508;-67
2023/01/06 02:22:49;;;;;;;5.45;3.47;;;;;;;;;;5074758;28;20223;-65
2023/01/06 02:25:26;;;;;;;3.80;3.50;;;;;;;;;;5069947;28;20204;-67
2023/01/06 02:28:10;;;;;;;4.20;3.80;;;;;;;;;;5071243;28;20221;-67
2023/01/06 02:30:45;;;;;;;3.80;3.42;;;;;;;;;;5066904;28;20204;-67
2023/01/06 02:33:18;;;;;;;3.78;3.58;;;;;;;;;;5069992;28;20193;-67
2023/01/06 02:35:50;;;;;;;3.72;3.25;;;;;;;;;;5069982;28;20211;-67
2023/01/06 02:38:22;;;;;;;3.33;3.13;;;;;;;;;;5070171;28;20616;-67
2023/01/06 02:40:54;;;;;;;3.53;3.22;;;;;;;;;;5070452;28;20201;-67
2023/01/06 02:43:26;;;;;;;5.88;3.10;;;;;;;;;;5073361;28;20232;-67
2023/01/06 02:45:56;;;;;;;3.50;3.20;;;;;;;;;;5072334;28;20207;-67
2023/01/06 02:48:26;;;;;;;3.30;3.00;;;;;;;;;;5070127;28;20197;-66
2023/01/06 02:50:55;;;;;;;3.38;3.08;;;;;;;;;;5071164;28;20201;-66
2023/01/06 02:53:26;;;;;;;3.17;2.88;;;;;;;;;;5073509;28;20196;-66
2023/01/06 02:55:54;;;;;;;3.15;2.90;;;;;;;;;;5071839;28;20201;-66
2023/01/06 02:58:25;;;;;;;4.97;3.15;;;;;;;;;;5070090;28;20202;-66
2023/01/06 03:00:52;;;;;;;3.00;2.80;;;;;;;;;;5074238;28;20216;-66
2023/01/06 03:03:20;;;;;;;3.45;3.15;;;;;;;;;;5070462;28;20278;-66
2023/01/06 03:05:51;;;;;;;3.88;3.58;;;;;;;;;;5077160;28;20438;-66
2023/01/06 03:08:19;;;;;;;3.88;3.47;;;;;;;;;;5077183;28;20291;-66
2023/01/06 03:10:47;;;;;;;6.65;5.07;;;;;;;;;;5077343;28;20208;-66
2023/01/06 03:13:15;;;;;;;6.35;4.63;;;;;;;;;;5073990;28;20500;-66
2023/01/06 03:15:42;;;;;;;6.72;4.80;;;;;;;;;;5073586;28;20193;-66
2023/01/06 03:18:08;;;;;;;9.52;4.43;;;;;;;;;;5076683;28;20212;-66
2023/01/06 03:20:34;;;;;;;7.30;5.07;;;;;;;;;;5077204;28;20203;-66
2023/01/06 03:23:02;;;;;;;5.55;4.30;;;;;;;;;;5074413;28;20219;-67
2023/01/06 03:25:28;;;;;;;8.52;3.90;;;;;;;;;;5073293;28;20203;-67
2023/01/06 03:27:55;;;;;;;6.50;4.68;;;;;;;;;;5074750;28;20220;-67
2023/01/06 03:30:21;;;;;;;5.93;5.35;;;;;;;;;;5077067;28;20196;-67
2023/01/06 03:32:53;;;;;;;5.47;4.80;;;;;;;;;;5076114;28;20195;-67
2023/01/06 03:35:32;;;;;;;11.55;5.35;;;;;;;;;;5073286;28;20259;-67
2023/01/06 03:38:03;;;;;;;17.38;5.65;;;;;;;;;;5075416;28;20204;-67
2023/01/06 03:40:35;;;;;;;8.07;5.63;;;;;;;;;;5076873;28;20408;-67
2023/01/06 03:43:11;;;;;;;6.03;5.22;;;;;;;;;;5074234;28;20223;-67
2023/01/06 03:45:50;;;;;;;5.57;4.80;;;;;;;;;;5072983;28;20193;-67
2023/01/06 03:48:19;;;;;;;5.90;5.35;;;;;;;;;;5073329;28;20409;-67
2023/01/06 03:50:48;;;;;;;5.53;5.03;;;;;;;;;;5073294;28;20212;-67
2023/01/06 03:53:19;;;;;;;5.68;4.65;;;;;;;;;;5076577;28;20259;-67
2023/01/06 03:55:49;;;;;;;6.28;5.18;;;;;;;;;;5076066;28;20519;-67
2023/01/06 03:58:16;;;;;;;5.97;4.70;;;;;;;;;;5072964;28;20235;-67
2023/01/06 04:00:42;;;;;;;5.15;4.65;;;;;;;;;;5072809;28;20197;-67
2023/01/06 04:03:09;;;;;;;7.13;4.80;;;;;;;;;;5075964;28;20419;-67
2023/01/06 04:05:35;;;;;;;4.90;4.50;;;;;;;;;;5076190;28;20520;-67
2023/01/06 04:08:02;;;;;;;4.97;4.47;;;;;;;;;;5082650;28;20197;-67
2023/01/06 04:10:28;;;;;;;6.28;4.88;;;;;;;;;;5071505;28;20197;-67
2023/01/06 04:12:54;;;;;;;8.55;4.80;;;;;;;;;;5073856;28;20197;-67
2023/01/06 04:15:22;;;;;;;4.15;3.88;;;;;;;;;;5076108;28;20238;-67
2023/01/06 04:17:49;;;;;;;5.72;4.85;;;;;;;;;;5075439;28;20207;-67
2023/01/06 04:20:16;;;;;;;5.20;4.70;;;;;;;;;;5072543;28;20212;-67
2023/01/06 04:22:43;;;;;;;5.28;4.78;;;;;;;;;;5072433;28;20216;-67
2023/01/06 04:25:09;;;;;;;4.55;4.15;;;;;;;;;;5075490;28;20211;-67
2023/01/06 04:27:35;;;;;;;4.70;4.30;;;;;;;;;;5075877;28;20221;-67
2023/01/06 04:30:03;;;;;;;6.72;4.32;;;;;;;;;;5073373;28;20531;-67
2023/01/06 04:32:29;;;;;;;5.97;4.53;;;;;;;;;;5072372;28;20201;-67
2023/01/06 04:34:56;;;;;;;8.35;4.07;;;;;;;;;;5073641;28;20246;-67
2023/01/06 04:37:22;;;;;;;5.50;4.00;;;;;;;;;;5075814;28;20517;-67
2023/01/06 04:39:48;;;;;;;5.53;3.53;;;;;;;;;;5074993;28;20204;-67
2023/01/06 04:42:15;;;;;;;4.30;2.70;;;;;;;;;;5071979;28;20216;-67
2023/01/06 04:44:41;;;;;;;2.78;2.67;;;;;;;;;;5072212;28;20197;-67
2023/01/06 04:47:09;;;;;;;2.70;2.60;;;;;;;;;;5074913;28;20197;-67
2023/01/06 04:49:35;;;;;;;2.95;2.85;;;;;;;;;;5076750;28;20201;-67
2023/01/06 04:52:01;;;;;;;5.65;3.00;;;;;;;;;;5074285;28;20197;-67
2023/01/06 04:54:28;;;;;;;3.60;3.30;;;;;;;;;;5075256;28;20500;-67
2023/01/06 04:56:54;;;;;;;2.95;2.80;;;;;;;;;;5066799;28;20205;-67
2023/01/06 04:59:20;;;;;;;5.40;3.22;;;;;;;;;;5075420;28;20204;-67
2023/01/06 05:01:46;;;;;;;4.78;3.70;;;;;;;;;;5074705;28;20196;-67
2023/01/06 05:04:14;;;;;;;4.22;3.70;;;;;;;;;;5071820;28;20198;-67
2023/01/06 05:06:40;;;;;;;4.22;3.90;;;;;;;;;;5071454;28;20250;-67
2023/01/06 05:09:07;;;;;;;3.80;3.42;;;;;;;;;;5074997;28;20196;-67
2023/01/06 05:11:33;;;;;;;4.15;3.83;;;;;;;;;;5075400;28;20200;-67
2023/01/06 05:14:00;;;;;;;4.30;3.85;;;;;;;;;;5072887;28;20196;-68
2023/01/06 05:16:28;;;;;;;4.65;3.83;;;;;;;;;;5071388;28;20211;-68
2023/01/06 05:18:54;;;;;;;3.70;3.40;;;;;;;;;;5072793;28;20268;-67
2023/01/06 05:21:23;;;;;;;4.88;3.95;;;;;;;;;;5069733;28;20216;-66
2023/01/06 05:23:50;;;;;;;3.97;3.65;;;;;;;;;;5071626;28;20276;-66
2023/01/06 05:26:17;;;;;;;3.78;3.40;;;;;;;;;;5074773;28;20197;-67
2023/01/06 05:28:43;;;;;;;3.83;3.53;;;;;;;;;;5074715;28;20584;-68
2023/01/06 05:31:10;;;;;;;4.05;3.53;;;;;;;;;;5071329;28;20519;-67
2023/01/06 05:33:36;;;;;;;4.65;4.18;;;;;;;;;;5071174;28;20207;-67
2023/01/06 05:36:04;;;;;;;4.38;3.90;;;;;;;;;;5079231;28;20512;-67
2023/01/06 05:38:31;;;;;;;5.25;4.63;;;;;;;;;;5070888;28;20197;-67
2023/01/06 05:40:58;;;;;;;8.35;6.20;;;;;;;;;;5072785;28;20201;-67
2023/01/06 05:43:25;;;;;;;5.97;5.47;;;;;;;;;;5074390;28;20425;-67
2023/01/06 05:45:51;;;;;;;4.68;4.38;;;;;;;;;;5073302;28;20200;-67
2023/01/06 05:48:17;;;;;;;5.55;4.57;;;;;;;;;;5067134;28;20200;-67
2023/01/06 05:50:43;;;;;;;8.02;5.20;;;;;;;;;;5074817;28;20204;-68
2023/01/06 05:53:10;;;;;;;7.15;5.10;;;;;;;;;;5062482;28;20197;-68
2023/01/06 05:55:37;;;;;;;6.30;4.28;;;;;;;;;;5070645;28;20208;-67
2023/01/06 05:58:04;;;;;;;4.75;4.32;;;;;;;;;;5073302;28;20200;-67
2023/01/06 06:00:30;;;;;;;5.00;4.55;;;;;;;;;;5074343;28;20214;-67
2023/01/06 06:02:56;;;;;;;5.32;4.38;;;;;;;;;;5072382;28;20248;-67
2023/01/06 06:05:22;;;;;;;4.35;3.95;;;;;;;;;;5070169;28;20197;-67
2023/01/06 06:07:52;;;;;;;4.28;3.88;;;;;;;;;;5070981;28;20197;-67
2023/01/06 06:10:18;;;;;;;4.57;4.18;;;;;;;;;;5074292;28;20200;-67
2023/01/06 06:12:46;;;;;;;3.67;3.40;;;;;;;;;;5074078;28;20193;-68
2023/01/06 06:15:12;;;;;;;5.70;3.78;;;;;;;;;;5070179;28;20243;-67
2023/01/06 06:17:38;;;;;;;4.15;3.70;;;;;;;;;;5070393;28;20204;-68
2023/01/06 06:20:05;;;;;;;4.05;3.75;;;;;;;;;;5072795;28;20200;-68
2023/01/06 06:22:31;;;;;;;5.80;3.75;;;;;;;;;;5073617;28;20496;-68
2023/01/06 06:24:57;;;;;;;4.50;4.10;;;;;;;;;;5071752;28;20504;-68
2023/01/06 06:27:24;;;;;;;3.65;3.35;;;;;;;;;;5070485;28;20241;-67
2023/01/06 06:29:51;;;;;;;3.33;3.03;;;;;;;;;;5070907;28;20410;-67
2023/01/06 06:32:18;;;;;;;3.95;3.58;;;;;;;;;;5073677;28;20196;-67
2023/01/06 06:34:44;;;;;;;4.35;4.05;;;;;;;;;;5072658;28;20196;-67
2023/01/06 06:37:10;;;;;;;4.68;4.03;;;;;;;;;;5073708;28;20196;-67
2023/01/06 06:39:36;;;;;;;7.82;4.18;;;;;;;;;;5073711;28;20259;-67
2023/01/06 06:42:03;;;;;;;4.65;4.30;;;;;;;;;;5070927;28;20211;-67
2023/01/06 06:44:29;;;;;;;5.15;4.75;;;;;;;;;;5069822;28;20215;-67
2023/01/06 06:46:57;;;;;;;5.28;4.20;;;;;;;;;;5071174;28;20207;-67
2023/01/06 06:49:23;;;;;;;4.18;3.88;;;;;;;;;;5073320;28;20246;-67
2023/01/06 06:51:50;;;;;;;4.95;4.55;;;;;;;;;;5072519;28;20200;-67
2023/01/06 06:54:16;;;;;;;4.13;3.83;;;;;;;;;;5074154;28;20222;-69
2023/01/06 06:56:42;;;;;;;10.50;4.72;;;;;;;;;;5073175;28;20246;-68
2023/01/06 06:59:08;;;;;;;4.47;4.03;;;;;;;;;;5070060;28;20432;-68
2023/01/06 07:01:35;;;;;;;4.03;3.47;;;;;;;;;;5069928;28;20500;-68
2023/01/06 07:04:02;;;;;;;4.82;3.90;;;;;;;;;;5071834;28;20224;-68
2023/01/06 07:06:30;;;;;;;5.90;4.30;;;;;;;;;;5073157;28;20203;-68
2023/01/06 07:08:56;;;;;;;4.93;4.13;;;;;;;;;;5071691;28;20227;-68
2023/01/06 07:11:23;;;;;;;4.70;4.30;;;;;;;;;;5069805;28;20525;-68
2023/01/06 07:13:49;;;;;;;4.72;4.07;;;;;;;;;;5070182;28;20201;-68
2023/01/06 07:16:15;;;;;;;4.72;3.38;;;;;;;;;;5073103;28;20390;-68
2023/01/06 07:18:41;;;;;;;4.13;3.83;;;;;;;;;;5073310;28;20197;-68
2023/01/06 07:21:09;;;;;;;5.65;3.75;;;;;;;;;;5069893;28;20292;-68
2023/01/06 07:23:35;;;;;;;4.15;3.85;;;;;;;;;;5069565;28;20231;-68
2023/01/06 07:26:03;;;;;;;4.63;3.63;;;;;;;;;;5071564;28;20212;-68
2023/01/06 07:28:30;;;;;;;3.78;3.20;;;;;;;;;;5072943;28;20296;-68
2023/01/06 07:30:56;;;;;;;3.17;2.97;;;;;;;;;;5071303;28;20206;-68
2023/01/06 07:33:22;;;;;;;7.78;3.58;;;;;;;;;;5069738;28;20194;-68
2023/01/06 07:35:52;;;;;;;3.40;3.10;;;;;;;;;;5069862;28;20209;-68
2023/01/06 07:38:20;;;;;;;3.60;3.30;;;;;;;;;;5072987;28;20196;-68
2023/01/06 07:40:46;;;;;;;4.65;3.45;;;;;;;;;;5072680;28;20205;-68
2023/01/06 07:43:12;;;;;;;3.47;2.83;;;;;;;;;;5069304;28;20224;-68
2023/01/06 07:45:39;;;;;;;3.97;3.10;;;;;;;;;;5070883;28;20197;-68
2023/01/06 07:48:05;;;;;;;3.25;3.00;;;;;;;;;;5075793;28;20208;-68
2023/01/06 07:50:32;;;;;;;4.18;3.53;;;;;;;;;;5076427;28;20415;-68
2023/01/06 07:52:59;;;;;;;2.45;2.30;;;;;;;;;;5074656;28;20504;-68
2023/01/06 07:55:26;;;;;;;2.65;2.42;;;;;;;;;;5072739;28;20208;-68
2023/01/06 07:57:52;;;;;;;2.38;2.28;;;;;;;;;;5073751;28;20197;-68
2023/01/06 08:00:19;;;;;;;2.55;2.42;;;;;;;;;;5076555;28;20200;-68
2023/01/06 08:02:45;;;;;;;2.05;1.83;;;;;;;;;;5076094;28;20196;-68
2023/01/06 08:05:12;;;;;;;2.67;2.10;;;;;;;;;;5072875;28;20220;-68
2023/01/06 08:07:38;;;;;;;2.15;2.05;;;;;;;;;;5072788;28;20217;-68
2023/01/06 08:10:04;;;;;;;1.90;1.80;;;;;;;;;;5075647;28;20211;-68
2023/01/06 08:12:32;;;;;;;1.95;1.83;;;;;;;;;;5075946;28;20197;-68
2023/01/06 08:14:58;;;;;;;1.70;1.70;;;;;;;;;;5074172;28;20200;-68
2023/01/06 08:17:24;;;;;;;3.75;3.33;;;;;;;;;;5072819;28;20546;-68
2023/01/06 08:19:51;;;;;;;3.88;3.25;;;;;;;;;;5073431;28;20409;-68
2023/01/06 08:22:17;;;;;;;3.83;3.63;;;;;;;;;;5075907;28;20486;-68
2023/01/06 08:24:43;;;;;;;3.65;3.33;;;;;;;;;;5075801;28;20389;-68
2023/01/06 08:27:09;;;;;;;4.55;4.20;;;;;;;;;;5072005;28;20209;-68
2023/01/06 08:29:37;;;;;;;5.65;4.28;;;;;;;;;;5072624;28;20201;-68
2023/01/06 08:32:03;;;;;;;3.78;3.55;;;;;;;;;;5074975;28;20236;-68
2023/01/06 08:34:30;;;;;;;5.40;3.95;;;;;;;;;;5075699;28;20196;-68
2023/01/06 08:36:56;;;;;;;5.05;4.55;;;;;;;;;;5073958;28;20223;-68
2023/01/06 08:39:22;;;;;;;4.28;3.92;;;;;;;;;;5072303;28;20197;-68
2023/01/06 08:41:50;;;;;;;5.50;3.90;;;;;;;;;;5072714;28;20239;-68
2023/01/06 08:44:16;;;;;;;3.83;3.53;;;;;;;;;;5075743;28;20400;-68
2023/01/06 08:46:44;;;;;;;4.22;3.83;;;;;;;;;;5075817;28;20203;-68
2023/01/06 08:49:10;;;;;;;4.25;3.92;;;;;;;;;;5067465;28;20203;-68
2023/01/06 08:51:37;;;;;;;3.65;3.33;;;;;;;;;;5076794;28;20520;-69
2023/01/06 08:54:03;;;;;;;4.20;3.38;;;;;;;;;;5074452;28;20197;-69
2023/01/06 08:56:30;;;;;;;3.85;3.63;;;;;;;;;;5074500;28;20208;-69
2023/01/06 08:58:57;;;;;;;5.72;5.10;;;;;;;;;;5073918;28;20472;-68
2023/01/06 09:01:25;;;;;;;5.55;4.90;;;;;;;;;;5071935;28;20203;-70
2023/01/06 09:03:53;;;;;;;4.60;4.25;;;;;;;;;;5072496;28;20228;-67
2023/01/06 09:06:20;;;;;;;4.70;4.40;;;;;;;;;;5075066;28;20196;-68
2023/01/06 09:08:47;;;;;;;4.60;4.20;;;;;;;;;;5075405;28;20427;-68
2023/01/06 09:11:14;;;;;;;4.57;4.28;;;;;;;;;;5071844;28;20251;-68
2023/01/06 09:13:40;;;;;;;4.45;4.10;;;;;;;;;;5071747;28;20362;-69
2023/01/06 09:16:07;;;;;;;4.25;3.97;;;;;;;;;;5074108;28;20197;-69
2023/01/06 09:18:33;;;;;;;3.92;3.63;;;;;;;;;;5075143;28;20205;-69
2023/01/06 09:21:01;;;;;;;4.05;3.75;;;;;;;;;;5072828;28;20271;-68
2023/01/06 09:23:27;;;;;;;4.45;4.15;;;;;;;;;;5071371;28;20575;-68
2023/01/06 09:25:54;;;;;;;5.28;5.07;;;;;;;;;;5072386;28;20217;-68
2023/01/06 09:28:20;;;;;;;2.90;2.70;;;;;;;;;;5074753;28;20216;-68
2023/01/06 09:30:47;;;;;;;2.13;2.03;;;;;;;;;;5074593;28;20201;-68
2023/01/06 09:33:13;;;;;;;1.77;1.67;;;;;;;;;;5071420;28;20197;-68
2023/01/06 09:35:40;;;;;;;1.70;1.60;;;;;;;;;;5071138;28;20197;-68
2023/01/06 09:38:07;;;;;;;2.83;2.35;;;;;;;;;;5073646;28;20204;-68
2023/01/06 09:40:38;;;;;;;4.72;2.78;;;;;;;;;;5074410;28;20397;-68
2023/01/06 09:43:10;;;;;;;3.60;2.53;;;;;;;;;;5071647;28;20200;-68
2023/01/06 09:45:39;;;;;;;5.53;3.20;;;;;;;;;;5070592;28;20202;-69
2023/01/06 09:48:08;;;;;;;3.78;2.83;;;;;;;;;;5073507;28;20208;-69
2023/01/06 09:50:37;;;;;;;3.55;3.33;;;;;;;;;;5074340;28;20197;-68
2023/01/06 09:53:05;;;;;;;3.38;3.08;;;;;;;;;;5071589;28;20215;-69
2023/01/06 09:55:35;;;;;;;3.47;3.28;;;;;;;;;;5070525;28;20194;-69
2023/01/06 09:58:03;;;;;;;3.70;3.50;;;;;;;;;;5072605;28;20292;-68
2023/01/06 10:00:33;;;;;;;5.00;4.60;;;;;;;;;;5074023;28;20512;-68
2023/01/06 10:02:59;;;;;;;5.70;5.07;;;;;;;;;;5071827;28;20200;-69
2023/01/06 10:05:31;;;;;;;5.30;4.90;;;;;;;;;;5070178;28;20235;-69
2023/01/06 10:08:01;;;;;;;6.53;5.00;;;;;;;;;;5072014;28;20227;-69
2023/01/06 10:10:32;;;;;;;5.20;4.70;;;;;;;;;;5073980;28;20444;-68
2023/01/06 10:13:05;;;;;;;4.95;4.65;;;;;;;;;;5071850;28;20206;-68
2023/01/06 10:15:37;;;;;;;4.10;3.75;;;;;;;;;;5069936;28;20193;-68
2023/01/06 10:18:09;;;;;;;4.75;4.07;;;;;;;;;;5072728;28;20201;-68
2023/01/06 10:20:50;;;;;;;3.97;3.70;;;;;;;;;;5073837;28;20212;-68
2023/01/06 10:23:24;;;;;;;4.40;3.72;;;;;;;;;;5069835;28;20197;-68
2023/01/06 10:25:52;;;;;;;5.43;3.50;;;;;;;;;;5070388;28;20204;-68
2023/01/06 10:28:28;;;;;;;3.33;3.15;;;;;;;;;;5073424;28;20224;-68
2023/01/06 10:30:55;;;;;;;3.00;2.90;;;;;;;;;;5072519;28;20204;-68
2023/01/06 10:33:23;;;;;;;3.00;2.85;;;;;;;;;;5070012;28;20410;-68
2023/01/06 10:35:49;;;;;;;3.58;3.33;;;;;;;;;;5070050;28;20235;-68
2023/01/06 10:38:16;;;;;;;3.53;3.25;;;;;;;;;;5073422;28;20422;-68
2023/01/06 10:40:43;;;;;;;3.60;3.20;;;;;;;;;;5073563;28;20200;-68
2023/01/06 10:43:11;;;;;;;3.08;2.88;;;;;;;;;;5070069;28;20215;-68
2023/01/06 10:45:39;;;;;;;2.97;2.78;;;;;;;;;;5069833;28;20257;-68
2023/01/06 10:48:07;;;;;;;2.70;2.55;;;;;;;;;;5072769;28;20205;-69
2023/01/06 10:50:34;;;;;;;3.08;2.80;;;;;;;;;;5073427;28;20235;-69
2023/01/06 10:53:00;;;;;;;2.90;2.70;;;;;;;;;;5071362;28;20390;-69
2023/01/06 10:55:31;;;;;;;2.83;2.63;;;;;;;;;;5070076;28;20385;-69
2023/01/06 10:58:00;;;;;;;2.28;2.13;;;;;;;;;;5071756;28;20263;-69
2023/01/06 11:00:27;;;;;;;2.70;2.47;;;;;;;;;;5073552;28;20430;-69
2023/01/06 11:03:02;;;;;;;2.10;2.00;;;;;;;;;;5072470;28;20211;-69
2023/01/06 11:05:30;;;;;;;1.73;1.63;;;;;;;;;;5069715;28;20216;-69
2023/01/06 11:07:58;;;;;;;1.27;1.27;;;;;;;;;;5071527;28;20247;-69
2023/01/06 11:10:30;;;;;;;1.23;1.20;;;;;;;;;;5073539;28;20200;-69
2023/01/06 11:12:58;;;;;;;2.78;1.88;;;;;;;;;;5071959;28;20207;-69
2023/01/06 11:15:25;;;;;;;2.55;1.95;;;;;;;;;;5069527;28;20197;-69
2023/01/06 11:17:52;;;;;;;1.33;1.33;;;;;;;;;;5070395;28;20201;-69
2023/01/06 11:20:29;;;;;;;1.33;1.33;;;;;;;;;;5070131;28;20225;-69
2023/01/06 11:23:11;;;;;;;1.17;1.13;;;;;;;;;;5075001;28;20508;-69
2023/01/06 11:25:37;;;;;;;2.42;2.03;;;;;;;;;;5076967;28;20283;-68
2023/01/06 11:28:15;;;;;;;2.67;0.90;;;;;;;;;;5077443;28;20265;-68
2023/01/06 11:30:45;;;;;;;1.00;1.00;;;;;;;;;;5077389;28;20204;-69
2023/01/06 11:33:16;;;;;;;1.02;1.00;;;;;;;;;;5069192;28;20530;-69
2023/01/06 11:35:44;;;;;;;1.55;0.77;;;;;;;;;;5076822;28;20200;-69
2023/01/06 11:38:12;;;;;;;0.90;0.90;;;;;;;;;;5073536;28;20197;-69
2023/01/06 11:40:39;;;;;;;1.45;1.00;;;;;;;;;;5073482;28;20197;-68
2023/01/06 11:43:07;;;;;;;1.65;0.90;;;;;;;;;;5075821;28;20208;-68
2023/01/06 11:45:34;;;;;;;0.35;0.35;;;;;;;;;;5076757;28;20227;-68
2023/01/06 11:48:01;;;;;;;0.30;0.30;;;;;;;;;;5074742;28;20196;-68
2023/01/06 11:50:27;;;;;;;0.60;0.30;;;;;;;;;;5073293;28;20391;-68
2023/01/06 11:52:59;;;;;;;0.20;0.20;;;;;;;;;;5074398;28;20212;-68
2023/01/06 11:55:26;;;;;;;0.52;0.52;;;;;;;;;;5076444;28;20219;-68
2023/01/06 11:57:56;;;;;;;0.20;0.20;;;;;;;;;;5075752;28;20188;-67
2023/01/06 12:00:32;;;;;;;0.38;0.30;;;;;;;;;;5073371;28;20197;-67
2023/01/06 12:03:02;;;;;;;0.73;0.40;;;;;;;;;;5074620;28;20201;-67
2023/01/06 12:05:30;;;;;;;0.80;0.30;;;;;;;;;;5076393;28;20220;-68
2023/01/06 12:07:57;;;;;;;0.20;0.20;;;;;;;;;;5074679;28;20204;-68
2023/01/06 12:10:28;;;;;;;0.30;0.30;;;;;;;;;;5070109;28;20200;-69
2023/01/06 12:12:54;;;;;;;0.30;0.30;;;;;;;;;;5075352;28;20503;-69
2023/01/06 12:15:21;;;;;;;0.30;0.30;;;;;;;;;;5072785;28;20204;-69
2023/01/06 12:17:49;;;;;;;0.90;0.30;;;;;;;;;;5073020;28;20197;-68
2023/01/06 12:20:18;;;;;;;0.38;0.30;;;;;;;;;;5076221;28;20220;-68
2023/01/06 12:22:45;;;;;;;0.60;0.50;;;;;;;;;;5076106;28;20272;-68
2023/01/06 12:25:13;;;;;;;0.35;0.35;;;;;;;;;;5076011;28;20220;-68
2023/01/06 12:27:43;;;;;;;0.45;0.35;;;;;;;;;;5076101;28;20216;-68
2023/01/06 12:30:14;;;;;;;0.40;0.40;;;;;;;;;;5072697;28;20221;-68
2023/01/06 12:32:42;;;;;;;0.50;0.40;;;;;;;;;;5071454;28;20220;-68
2023/01/06 12:35:11;;;;;;;0.32;0.32;;;;;;;;;;5075346;28;20395;-69
2023/01/06 12:37:38;;;;;;;0.38;0.38;;;;;;;;;;5075995;28;20367;-68
2023/01/06 12:40:10;;;;;;;0.40;0.30;;;;;;;;;;5073244;28;20437;-68
2023/01/06 12:42:38;;;;;;;0.32;0.32;;;;;;;;;;5072447;28;20201;-69
2023/01/06 12:45:10;;;;;;;0.35;0.35;;;;;;;;;;5074591;28;20221;-68
2023/01/06 12:47:37;;;;;;;0.52;0.30;;;;;;;;;;5075660;28;20403;-68
2023/01/06 12:50:06;;;;;;;0.50;0.50;;;;;;;;;;5073221;28;20212;-68
2023/01/06 12:52:35;;;;;;;0.60;0.60;;;;;;;;;;5072358;28;20197;-68
2023/01/06 12:55:01;;;;;;;2.25;0.90;;;;;;;;;;5073990;28;20197;-68
2023/01/06 12:57:48;;;;;;;1.08;1.08;;;;;;;;;;5075680;28;20200;-68
2023/01/06 13:00:36;;;;;;;0.85;0.50;;;;;;;;;;5071902;28;20494;-68
2023/01/06 13:03:17;;;;;;;0.80;0.80;;;;;;;;;;5067358;28;20219;-68
2023/01/06 13:06:17;;;;;;;0.57;0.57;;;;;;;;;;5074898;28;20220;-68
2023/01/06 13:09:01;;;;;;;1.48;0.80;;;;;;;;;;4998354;28;20262;-68
2023/01/06 13:11:31;;;;;;;0.60;0.60;;;;;;;;;;4996072;28;20211;-68
2023/01/06 13:14:02;;;;;;;0.60;0.60;;;;;;;;;;5039599;28;20200;-68
2023/01/06 13:16:36;;;;;;;1.75;0.63;;;;;;;;;;5071579;28;20509;-69
2023/01/06 13:19:05;;;;;;;0.45;0.45;;;;;;;;;;5073915;28;20201;-68
2023/01/06 13:21:31;;;;;;;0.50;0.50;;;;;;;;;;5075159;28;20207;-68
2023/01/06 13:24:06;;;;;;;1.02;1.02;;;;;;;;;;5073346;28;20205;-68
2023/01/06 13:26:44;;;;;;;1.60;1.00;;;;;;;;;;5071261;28;20216;-68
2023/01/06 13:29:15;;;;;;;1.00;1.00;;;;;;;;;;5074522;28;20496;-68
2023/01/06 13:31:53;;;;;;;1.83;1.55;;;;;;;;;;5075091;28;20200;-68
2023/01/06 13:34:39;;;;;;;1.35;1.25;;;;;;;;;;5071425;28;20197;-68
2023/01/06 13:37:13;;;;;;;0.60;0.60;;;;;;;;;;5073941;28;20212;-68
2023/01/06 13:39:41;;;;;;;0.98;0.98;;;;;;;;;;5074635;28;20195;-68
2023/01/06 13:42:09;;;;;;;1.23;1.05;;;;;;;;;;5071769;28;20275;-68
2023/01/06 13:44:38;;;;;;;1.17;1.17;;;;;;;;;;5070776;28;20197;-68
2023/01/06 13:47:07;;;;;;;0.75;0.75;;;;;;;;;;5073431;28;20247;-68
2023/01/06 13:49:35;;;;;;;0.70;0.70;;;;;;;;;;5074491;28;20580;-69
2023/01/06 13:52:02;;;;;;;1.20;0.73;;;;;;;;;;5072224;28;20208;-69
2023/01/06 13:54:43;;;;;;;0.73;0.73;;;;;;;;;;5071116;28;20264;-68
2023/01/06 13:57:27;;;;;;;1.50;1.40;;;;;;;;;;5073528;28;20479;-68
2023/01/06 13:59:54;;;;;;;7.85;6.57;;;;;;;;;;5073272;28;20376;-68
2023/01/06 14:02:39;;;;;;;2.22;2.13;;;;;;;;;;5067067;28;20196;-68
2023/01/06 14:05:07;;;;;;;1.00;1.00;;;;;;;;;;5071092;28;20227;-68
2023/01/06 14:07:35;;;;;;;0.63;0.63;;;;;;;;;;5077421;28;20207;-68
2023/01/06 14:10:02;;;;;;;0.70;0.70;;;;;;;;;;5072070;28;20507;-68
2023/01/06 14:12:29;;;;;;;1.33;0.88;;;;;;;;;;5070672;28;20197;-68
2023/01/06 14:14:57;;;;;;;0.90;0.90;;;;;;;;;;5071684;28;20227;-68
2023/01/06 14:17:28;;;;;;;1.58;1.40;;;;;;;;;;5073840;28;20200;-68
2023/01/06 14:19:55;;;;;;;1.60;1.50;;;;;;;;;;5072982;28;20208;-68
2023/01/06 14:22:25;;;;;;;1.17;1.17;;;;;;;;;;5070486;28;20205;-68
2023/01/06 14:24:52;;;;;;;1.85;1.75;;;;;;;;;;5070950;28;20524;-68
2023/01/06 14:27:33;;;;;;;3.95;3.60;;;;;;;;;;5073631;28;20196;-68
2023/01/06 14:30:04;;;;;;;2.17;2.08;;;;;;;;;;5071928;28;20219;-68
2023/01/06 14:32:49;;;;;;;3.63;3.33;;;;;;;;;;5070593;28;20439;-68
2023/01/06 14:35:16;;;;;;;3.40;2.50;;;;;;;;;;5070349;28;20558;-59
2023/01/06 14:37:46;;;;;;;4.00;3.00;;;;;;;;;;5070347;28;20391;-59
2023/01/06 14:40:17;;;;;;;2.53;2.33;;;;;;;;;;5069953;28;20192;-58
2023/01/06 14:42:44;;;;;;;3.95;3.60;;;;;;;;;;5072090;28;20431;-59
2023/01/06 14:45:16;;;;;;;0.80;0.80;;;;;;;;;;5065081;28;20208;-59
2023/01/06 14:47:45;;;;;;;1.00;1.00;;;;;;;;;;5073634;28;20196;-59
2023/01/06 14:50:14;;;;;;;0.75;0.60;;;;;;;;;;5070088;28;20198;-59
2023/01/06 14:52:42;;;;;;;1.25;1.25;;;;;;;;;;5070007;28;20196;-59
2023/01/06 14:55:13;;;;;;;0.60;0.60;;;;;;;;;;5072399;28;20192;-59